Time;durP1;ratioP1;P1;durP2;ratioP2;P2;SDS_P1;SDS_P2;PMS_P1;PMS_P2;Temp;Humidity;BMP_temperature;BMP_pressure;BME280_temperature;BME280_humidity;BME280_pressure;Samples;Min_cycle;Max_cycle;Signal;HPM_P1;HPM_P2
2023/07/16 00:04:44;;;;;;;0.60;0.60;;;;;;;20.54;58.06;99460.44;10426064;28;20481;-59
2023/07/16 00:09:46;;;;;;;0.52;0.52;;;;;;;20.49;57.41;99462.78;10427144;28;20139;-59
2023/07/16 00:14:48;;;;;;;0.80;0.65;;;;;;;20.46;57.26;99444.50;10425697;28;20478;-59
2023/07/16 00:19:50;;;;;;;1.92;0.70;;;;;;;20.47;56.40;99440.88;10425318;28;20461;-59
2023/07/16 00:24:52;;;;;;;0.70;0.70;;;;;;;20.42;56.11;99448.50;10425032;28;20141;-59
2023/07/16 00:29:54;;;;;;;0.70;0.60;;;;;;;20.42;55.28;99463.63;10426516;28;20414;-59
2023/07/16 00:34:56;;;;;;;1.50;0.70;;;;;;;20.40;54.94;99462.97;10424151;28;20122;-59
2023/07/16 00:39:58;;;;;;;1.02;0.95;;;;;;;20.39;54.66;99483.38;10424488;28;20135;-59
2023/07/16 00:45:00;;;;;;;0.60;0.55;;;;;;;20.35;54.31;99474.06;10424036;28;20049;-59
2023/07/16 00:50:03;;;;;;;1.67;0.90;;;;;;;20.38;53.70;99471.06;10425783;28;20076;-59
2023/07/16 00:55:06;;;;;;;0.70;0.65;;;;;;;20.33;53.38;99491.16;10425204;28;20130;-59
2023/07/16 01:00:10;;;;;;;0.82;0.70;;;;;;;20.21;53.04;99486.16;10423982;28;20048;-59
2023/07/16 01:05:12;;;;;;;2.05;0.63;;;;;;;20.18;52.88;99489.16;10426041;28;20544;-59
2023/07/16 01:10:15;;;;;;;1.17;0.80;;;;;;;20.21;52.75;99490.66;10428073;28;20049;-59
2023/07/16 01:15:17;;;;;;;0.55;0.50;;;;;;;20.08;52.27;99491.13;10426301;28;20052;-59
2023/07/16 01:20:19;;;;;;;0.73;0.63;;;;;;;20.15;52.09;99483.34;10427298;28;20616;-59
2023/07/16 01:25:27;;;;;;;1.00;0.50;;;;;;;20.15;51.99;99499.28;10423526;28;20631;-59
2023/07/16 01:30:30;;;;;;;1.85;0.90;;;;;;;20.05;51.91;99498.59;10421600;28;20136;-59
2023/07/16 01:35:33;;;;;;;0.85;0.70;;;;;;;20.02;51.90;99509.50;10423465;28;20131;-59
2023/07/16 01:40:35;;;;;;;1.63;0.98;;;;;;;19.77;51.81;99515.69;10438617;28;20072;-59
2023/07/16 01:45:38;;;;;;;0.82;0.70;;;;;;;19.67;51.84;99526.44;10423009;28;20055;-59
2023/07/16 01:50:40;;;;;;;1.73;0.60;;;;;;;19.51;51.98;99533.47;10422508;28;20052;-59
2023/07/16 01:55:42;;;;;;;1.10;0.70;;;;;;;19.40;52.25;99535.41;10423649;28;20478;-59
2023/07/16 02:00:45;;;;;;;1.45;0.95;;;;;;;19.33;52.40;99533.56;10422736;28;20557;-59
2023/07/16 02:05:47;;;;;;;2.20;0.93;;;;;;;19.21;52.34;99543.59;10428734;28;20067;-59
2023/07/16 02:10:50;;;;;;;1.50;0.77;;;;;;;19.13;52.88;99558.63;10444746;28;20060;-59
2023/07/16 02:15:52;;;;;;;2.13;0.63;;;;;;;19.04;52.53;99552.41;10420671;28;20067;-59
2023/07/16 02:20:54;;;;;;;0.93;0.70;;;;;;;18.91;53.13;99559.06;10428014;28;20049;-59
2023/07/16 02:25:56;;;;;;;1.13;0.80;;;;;;;18.91;53.00;99556.44;10429061;28;20049;-59
2023/07/16 02:30:58;;;;;;;1.00;0.80;;;;;;;18.89;53.09;99561.03;10429602;28;20131;-59
2023/07/16 02:36:00;;;;;;;0.75;0.50;;;;;;;18.84;52.81;99569.44;10406539;28;20073;-59
2023/07/16 02:41:04;;;;;;;4.40;0.88;;;;;;;18.74;53.17;99579.28;10426741;28;20049;-59
2023/07/16 02:46:07;;;;;;;2.28;0.90;;;;;;;18.61;53.46;99589.41;10421597;28;20457;-59
2023/07/16 02:51:09;;;;;;;0.85;0.60;;;;;;;18.61;53.30;99589.41;10403857;28;20056;-59
2023/07/16 02:56:11;;;;;;;1.17;0.80;;;;;;;18.56;53.69;99591.72;10435741;28;20111;-59
2023/07/16 03:01:13;;;;;;;2.90;0.70;;;;;;;18.52;53.29;99595.63;10435559;28;20049;-59
2023/07/16 03:06:15;;;;;;;2.83;1.52;;;;;;;18.43;53.47;99612.41;10431944;28;20116;-59
2023/07/16 03:11:25;;;;;;;2.80;0.77;;;;;;;18.39;53.70;99616.34;10427953;28;20064;-59
2023/07/16 03:16:27;;;;;;;1.30;0.80;;;;;;;18.38;53.61;99620.78;10426923;28;20348;-59
2023/07/16 03:21:29;;;;;;;1.05;0.90;;;;;;;18.37;53.72;99637.69;10429568;28;20092;-59
2023/07/16 03:26:32;;;;;;;1.55;0.70;;;;;;;18.40;53.26;99631.25;10412282;28;20401;-59
2023/07/16 03:31:35;;;;;;;3.60;1.13;;;;;;;18.43;53.17;99633.59;10399533;28;20412;-59
2023/07/16 03:36:37;;;;;;;2.95;0.93;;;;;;;18.35;53.36;99644.94;10426311;28;20405;-59
2023/07/16 03:41:39;;;;;;;1.20;0.70;;;;;;;18.20;53.83;99659.63;10426336;28;20049;-59
2023/07/16 03:46:41;;;;;;;4.47;0.90;;;;;;;18.20;54.01;99653.53;10428004;28;20051;-59
2023/07/16 03:51:43;;;;;;;0.77;0.70;;;;;;;18.19;53.81;99651.81;10426182;28;20079;-59
2023/07/16 03:56:45;;;;;;;1.40;0.70;;;;;;;18.24;53.77;99655.72;10426877;28;20037;-59
2023/07/16 04:01:47;;;;;;;1.20;0.80;;;;;;;18.32;53.00;99655.81;10425903;28;20064;-59
2023/07/16 04:06:49;;;;;;;1.83;1.15;;;;;;;18.31;52.85;99661.25;10427940;28;20056;-59
2023/07/16 04:11:51;;;;;;;1.05;0.95;;;;;;;18.41;52.70;99668.19;10427246;28;20132;-59
2023/07/16 04:16:53;;;;;;;1.20;0.70;;;;;;;18.47;52.52;99677.34;10424851;28;20045;-59
2023/07/16 04:21:55;;;;;;;1.42;1.00;;;;;;;18.75;51.86;99689.56;10425848;28;20080;-59
2023/07/16 04:26:58;;;;;;;3.35;0.82;;;;;;;20.63;49.09;99684.53;10427227;28;20737;-59
2023/07/16 04:32:01;;;;;;;5.53;1.10;;;;;;;22.75;45.64;99681.34;10426655;28;20136;-59
2023/07/16 04:37:03;;;;;;;1.15;0.80;;;;;;;24.50;42.61;99678.28;10423657;28;20041;-59
2023/07/16 04:42:05;;;;;;;0.85;0.50;;;;;;;25.87;39.34;99672.47;10424464;28;20148;-59
2023/07/16 04:47:07;;;;;;;1.63;0.80;;;;;;;26.60;38.85;99677.28;10425883;28;20139;-59
2023/07/16 04:52:09;;;;;;;0.75;0.65;;;;;;;27.67;37.42;99690.72;10423857;28;20126;-60
2023/07/16 04:57:11;;;;;;;1.48;0.70;;;;;;;29.07;35.36;99679.97;10425509;28;20156;-60
2023/07/16 05:02:15;;;;;;;0.98;0.63;;;;;;;29.84;34.34;99687.72;10423180;28;20398;-60
2023/07/16 05:07:17;;;;;;;3.42;0.85;;;;;;;31.04;32.36;99694.25;10423373;28;20635;-60
2023/07/16 05:12:19;;;;;;;1.65;0.85;;;;;;;31.71;31.18;99691.16;10424793;28;20131;-60
2023/07/16 05:17:22;;;;;;;0.98;0.80;;;;;;;32.41;29.64;99702.78;10424782;28;20326;-60
2023/07/16 05:22:25;;;;;;;0.68;0.60;;;;;;;32.51;29.05;99699.50;10424428;28;20132;-60
2023/07/16 05:27:28;;;;;;;1.38;1.02;;;;;;;32.42;28.49;99712.53;10422238;28;20873;-60
2023/07/16 05:32:30;;;;;;;1.25;0.73;;;;;;;32.11;27.77;99713.75;10423967;28;20815;-60
2023/07/16 05:37:32;;;;;;;0.98;0.88;;;;;;;28.78;30.84;99730.84;10439293;28;20045;-60
2023/07/16 05:42:34;;;;;;;0.95;0.70;;;;;;;25.94;33.96;99746.75;10404987;28;20433;-60
2023/07/16 05:47:36;;;;;;;2.83;1.08;;;;;;;24.51;35.79;99760.16;10423745;28;20045;-60
2023/07/16 05:52:39;;;;;;;1.80;1.08;;;;;;;23.50;37.10;99773.09;10422066;28;20543;-60
2023/07/16 05:57:41;;;;;;;2.42;1.30;;;;;;;22.84;38.17;99775.47;10422939;28;20080;-59
2023/07/16 06:02:43;;;;;;;1.65;1.00;;;;;;;21.95;39.16;99777.47;10423137;28;20063;-59
2023/07/16 06:07:45;;;;;;;4.47;1.15;;;;;;;21.75;39.68;99769.00;10421600;28;20041;-59
2023/07/16 06:12:47;;;;;;;2.63;1.38;;;;;;;21.75;39.77;99774.31;10422951;28;20059;-59
2023/07/16 06:17:49;;;;;;;2.17;1.00;;;;;;;21.39;39.94;99773.81;10422989;28;20515;-59
2023/07/16 06:22:51;;;;;;;2.15;1.00;;;;;;;21.13;40.26;99783.69;10430359;28;20080;-59
2023/07/16 06:27:53;;;;;;;1.00;0.90;;;;;;;21.30;40.23;99784.56;10430371;28;20398;-59
2023/07/16 06:32:55;;;;;;;3.28;1.30;;;;;;;21.47;40.11;99786.28;10427402;28;20235;-59
2023/07/16 06:37:57;;;;;;;2.25;1.00;;;;;;;21.37;39.69;99793.59;10429431;28;20195;-59
2023/07/16 06:42:59;;;;;;;2.67;1.50;;;;;;;21.37;39.72;99790.94;10428773;28;20064;-59
2023/07/16 06:48:01;;;;;;;1.83;1.02;;;;;;;21.64;39.52;99782.66;10425940;28;20512;-59
2023/07/16 06:53:03;;;;;;;4.05;1.25;;;;;;;21.69;39.30;99783.81;10398952;28;20051;-59
2023/07/16 06:58:05;;;;;;;2.40;1.02;;;;;;;21.67;39.07;99782.31;10428018;28;20525;-59
2023/07/16 07:03:07;;;;;;;3.17;1.38;;;;;;;21.20;38.37;99768.75;10422638;28;20263;-59
2023/07/16 07:08:10;;;;;;;6.47;1.20;;;;;;;21.53;38.52;99774.97;10425362;28;20630;-59
2023/07/16 07:13:12;;;;;;;4.18;1.58;;;;;;;21.71;38.54;99773.00;10429145;28;20477;-59
2023/07/16 07:18:14;;;;;;;3.42;1.08;;;;;;;21.81;37.78;99774.50;10425760;28;20127;-59
2023/07/16 07:23:16;;;;;;;5.60;2.30;;;;;;;22.16;37.86;99767.16;10424805;28;20132;-59
2023/07/16 07:28:19;;;;;;;3.72;1.38;;;;;;;22.44;37.17;99776.41;10419931;28;20052;-59
2023/07/16 07:33:22;;;;;;;2.58;1.13;;;;;;;22.82;36.46;99780.97;10406327;28;20084;-59
2023/07/16 07:38:24;;;;;;;1.98;1.02;;;;;;;23.24;35.45;99789.44;10420081;28;20096;-59
2023/07/16 07:43:26;;;;;;;1.38;1.00;;;;;;;24.19;34.61;99778.22;10421961;28;20761;-60
2023/07/16 07:48:28;;;;;;;3.17;1.33;;;;;;;25.03;33.26;99787.63;10422665;28;20131;-59
2023/07/16 07:53:31;;;;;;;3.35;1.17;;;;;;;26.08;31.40;99786.06;10420759;28;20052;-60
2023/07/16 07:58:33;;;;;;;8.15;1.00;;;;;;;26.82;29.77;99782.63;10412416;28;20991;-60
2023/07/16 08:03:35;;;;;;;2.72;1.20;;;;;;;26.87;29.94;99773.97;10418812;28;20037;-60
2023/07/16 08:08:37;;;;;;;2.13;1.10;;;;;;;27.05;29.74;99780.44;10408867;28;20045;-60
2023/07/16 08:13:39;;;;;;;3.85;1.17;;;;;;;26.80;29.18;99773.94;10412900;28;20139;-60
2023/07/16 08:18:41;;;;;;;1.85;1.00;;;;;;;27.86;27.03;99775.91;10404422;28;21306;-60
2023/07/16 08:23:43;;;;;;;2.20;1.10;;;;;;;28.39;27.52;99787.47;10412003;28;20146;-60
2023/07/16 08:28:46;;;;;;;4.03;1.20;;;;;;;28.37;26.50;99784.16;10403922;28;20151;-60
2023/07/16 08:33:48;;;;;;;2.17;1.48;;;;;;;28.48;26.92;99781.69;10414137;28;20069;-60
2023/07/16 08:38:50;;;;;;;1.20;0.93;;;;;;;28.15;26.21;99775.47;10415447;28;20515;-60
2023/07/16 08:43:53;;;;;;;5.93;1.40;;;;;;;27.94;25.86;99781.06;10409095;28;20674;-60
2023/07/16 08:48:56;;;;;;;1.40;0.90;;;;;;;27.85;26.29;99779.63;10412866;28;20127;-61
2023/07/16 08:53:58;;;;;;;2.25;1.08;;;;;;;27.48;25.56;99786.38;10411220;28;20041;-60
2023/07/16 08:59:01;;;;;;;1.40;1.10;;;;;;;27.48;25.01;99792.56;10410430;28;20560;-60
2023/07/16 09:04:04;;;;;;;2.35;1.10;;;;;;;27.31;25.68;99807.41;10415894;28;20053;-60
2023/07/16 09:09:05;;;;;;;1.67;0.98;;;;;;;27.65;25.34;99798.38;10416477;28;20052;-61
2023/07/16 09:14:08;;;;;;;1.75;1.20;;;;;;;26.67;24.20;99806.06;10417336;28;20125;-60
2023/07/16 09:19:13;;;;;;;1.48;1.08;;;;;;;27.18;25.31;99803.84;10414857;28;20095;-60
2023/07/16 09:24:18;;;;;;;1.65;1.08;;;;;;;27.82;24.89;99812.28;10412465;28;20048;-60
2023/07/16 09:29:25;;;;;;;2.47;1.35;;;;;;;27.43;24.53;99818.38;10414981;28;20421;-59
2023/07/16 09:34:29;;;;;;;1.77;1.02;;;;;;;27.48;25.32;99813.25;10415715;28;20049;-58
2023/07/16 09:39:32;;;;;;;2.95;1.33;;;;;;;28.19;24.96;99820.59;10414246;28;20049;-59
2023/07/16 09:44:35;;;;;;;2.65;1.02;;;;;;;27.61;24.10;99818.63;10416956;28;20036;-58
2023/07/16 09:49:37;;;;;;;2.08;1.17;;;;;;;27.40;24.70;99813.44;10416006;28;20238;-59
2023/07/16 09:54:41;;;;;;;2.90;1.00;;;;;;;27.28;24.38;99820.44;10413999;28;20418;-58
2023/07/16 09:59:46;;;;;;;2.33;1.23;;;;;;;27.55;24.48;99815.91;10402116;28;20049;-58
2023/07/16 10:04:48;;;;;;;2.03;1.30;;;;;;;27.77;24.28;99815.59;10414115;28;20048;-58
2023/07/16 10:09:56;;;;;;;3.22;1.35;;;;;;;27.81;24.60;99822.19;10418850;28;20061;-58
2023/07/16 10:15:01;;;;;;;2.63;1.20;;;;;;;27.65;24.77;99829.81;10416349;28;20052;-59
2023/07/16 10:20:10;;;;;;;2.78;1.00;;;;;;;27.80;24.31;99825.09;10415465;28;20119;-58
2023/07/16 10:25:18;;;;;;;2.87;1.10;;;;;;;27.62;24.79;99814.94;10418854;28;20049;-58
2023/07/16 10:30:21;;;;;;;2.50;1.17;;;;;;;26.83;25.76;99827.22;10415950;28;20505;-58
2023/07/16 10:35:24;;;;;;;2.08;1.23;;;;;;;25.88;26.26;99826.88;10417931;28;20037;-58
2023/07/16 10:40:26;;;;;;;2.20;1.30;;;;;;;26.32;25.71;99834.69;10416621;28;20075;-58
2023/07/16 10:45:29;;;;;;;4.03;1.48;;;;;;;25.93;26.41;99828.97;10401880;28;20282;-58
2023/07/16 10:50:35;;;;;;;2.33;1.17;;;;;;;25.51;26.55;99835.16;10420686;28;20087;-58
2023/07/16 10:55:37;;;;;;;3.13;1.02;;;;;;;25.31;26.78;99831.38;10413949;28;20515;-58
2023/07/16 11:00:40;;;;;;;1.50;0.90;;;;;;;25.35;26.83;99829.19;10418695;28;20443;-59
2023/07/16 11:05:46;;;;;;;3.72;1.40;;;;;;;25.70;25.62;99818.47;10422086;28;20045;-59
2023/07/16 11:10:58;;;;;;;2.35;1.17;;;;;;;26.21;25.42;99832.53;10422290;28;20512;-61
2023/07/16 11:16:10;;;;;;;1.88;1.00;;;;;;;26.84;25.40;99810.06;10424640;28;20088;-61
2023/07/16 11:21:12;;;;;;;2.53;1.30;;;;;;;26.59;25.09;99808.91;10428208;28;20688;-60
2023/07/16 11:26:15;;;;;;;2.15;1.20;;;;;;;26.34;25.15;99810.38;10424927;28;20060;-60
2023/07/16 11:31:17;;;;;;;5.35;1.60;;;;;;;26.39;25.49;99792.66;10427051;28;20045;-60
2023/07/16 11:36:22;;;;;;;1.67;1.10;;;;;;;26.86;25.26;99813.38;10415957;28;20049;-60
2023/07/16 11:41:24;;;;;;;2.30;1.25;;;;;;;26.74;25.23;99806.94;10425495;28;20176;-60
2023/07/16 11:46:32;;;;;;;1.50;0.98;;;;;;;26.82;24.81;99809.44;10424171;28;20066;-60
2023/07/16 11:51:35;;;;;;;4.03;1.55;;;;;;;26.76;24.78;99809.41;10423577;28;20485;-60
2023/07/16 11:56:37;;;;;;;3.63;1.50;;;;;;;26.61;25.52;99814.91;10422713;28;20488;-60
2023/07/16 12:01:39;;;;;;;3.15;1.10;;;;;;;26.82;24.96;99809.44;10420896;28;20052;-60
2023/07/16 12:06:41;;;;;;;3.90;1.20;;;;;;;26.56;25.29;99804.78;10414071;28;20127;-60
2023/07/16 12:11:43;;;;;;;3.05;1.20;;;;;;;26.73;25.65;99815.19;10419638;28;20509;-60
2023/07/16 12:16:46;;;;;;;2.50;1.23;;;;;;;26.64;25.62;99801.94;10420053;28;20045;-60
2023/07/16 12:21:48;;;;;;;3.00;1.20;;;;;;;26.50;24.86;99804.69;10418749;28;20068;-60
2023/07/16 12:26:52;;;;;;;16.60;1.60;;;;;;;26.44;25.56;99808.16;10419491;28;20056;-60
2023/07/16 12:31:54;;;;;;;4.18;1.50;;;;;;;26.69;25.12;99814.72;10420944;28;20055;-60
2023/07/16 12:36:56;;;;;;;6.32;1.55;;;;;;;26.62;25.14;99805.84;10416827;28;20041;-60
2023/07/16 12:41:58;;;;;;;2.90;1.25;;;;;;;26.88;24.47;99807.81;10437627;28;20543;-60
2023/07/16 12:47:00;;;;;;;3.45;1.58;;;;;;;26.98;24.40;99798.38;10420023;28;20488;-60
2023/07/16 12:52:02;;;;;;;4.68;1.40;;;;;;;26.60;24.64;99807.88;10433290;28;20052;-61
2023/07/16 12:57:05;;;;;;;4.05;1.48;;;;;;;26.58;25.29;99809.94;10418707;28;20131;-60
2023/07/16 13:02:07;;;;;;;5.32;1.48;;;;;;;26.34;25.28;99819.25;10414616;28;20132;-61
2023/07/16 13:07:09;;;;;;;3.15;1.40;;;;;;;26.95;24.96;99814.06;10416958;28;20326;-61
2023/07/16 13:12:11;;;;;;;3.40;1.40;;;;;;;26.96;24.91;99803.13;10421175;28;20060;-60
2023/07/16 13:17:14;;;;;;;1.77;1.10;;;;;;;26.32;25.15;99813.22;10422347;28;20110;-60
2023/07/16 13:22:17;;;;;;;3.42;1.55;;;;;;;26.28;25.30;99817.31;10423105;28;20485;-61
2023/07/16 13:27:23;;;;;;;7.53;1.50;;;;;;;26.41;25.14;99800.50;10431314;28;20060;-61
2023/07/16 13:32:25;;;;;;;3.60;1.70;;;;;;;26.56;25.23;99803.94;10413295;28;20056;-60
2023/07/16 13:37:27;;;;;;;4.32;1.77;;;;;;;26.75;25.39;99802.41;10417067;28;20052;-61
2023/07/16 13:42:29;;;;;;;3.30;1.48;;;;;;;27.17;24.79;99802.19;10417260;28;20142;-61
2023/07/16 13:47:31;;;;;;;3.13;1.52;;;;;;;27.08;24.55;99811.41;10414465;28;20146;-61
2023/07/16 13:52:33;;;;;;;2.72;1.60;;;;;;;27.29;24.30;99822.91;10416399;28;20037;-62
2023/07/16 13:57:35;;;;;;;4.47;1.60;;;;;;;27.60;24.31;99813.47;10414197;28;20490;-61
2023/07/16 14:02:37;;;;;;;3.83;1.58;;;;;;;27.20;23.67;99816.03;10406727;28;20512;-61
2023/07/16 14:07:40;;;;;;;2.72;1.40;;;;;;;27.16;24.49;99820.16;10412172;28;20461;-61
2023/07/16 14:12:42;;;;;;;6.30;1.65;;;;;;;27.03;24.74;99817.41;10399794;28;20056;-61
2023/07/16 14:17:44;;;;;;;3.45;1.65;;;;;;;26.91;24.56;99810.13;10413710;28;20498;-61
2023/07/16 14:22:46;;;;;;;4.47;1.45;;;;;;;26.56;25.02;99822.72;10417924;28;20063;-61
2023/07/16 14:27:48;;;;;;;2.85;1.73;;;;;;;26.82;25.07;99820.19;10412312;28;20044;-61
2023/07/16 14:32:50;;;;;;;3.38;1.70;;;;;;;27.05;24.52;99819.88;10417381;28;20043;-61
2023/07/16 14:37:52;;;;;;;3.10;1.50;;;;;;;26.96;24.56;99821.91;10416505;28;20041;-61
2023/07/16 14:42:54;;;;;;;4.60;1.40;;;;;;;26.98;24.69;99817.16;10424944;28;20048;-60
2023/07/16 14:47:56;;;;;;;4.03;1.60;;;;;;;26.94;24.45;99807.00;10423231;28;20337;-61
2023/07/16 14:52:58;;;;;;;4.13;1.60;;;;;;;27.04;24.49;99800.25;10423364;28;20040;-61
2023/07/16 14:58:02;;;;;;;3.75;1.42;;;;;;;27.71;23.60;99804.81;10415597;28;20405;-61
2023/07/16 15:03:05;;;;;;;3.00;1.35;;;;;;;27.70;23.78;99792.41;10421050;28;20311;-61
2023/07/16 15:08:08;;;;;;;3.35;1.27;;;;;;;27.85;23.17;99803.81;10419551;28;20037;-61
2023/07/16 15:13:11;;;;;;;3.45;1.23;;;;;;;27.74;23.91;99788.31;10422254;28;20554;-61
2023/07/16 15:18:15;;;;;;;3.78;1.42;;;;;;;27.95;23.51;99796.97;10422876;28;20052;-61
2023/07/16 15:23:19;;;;;;;2.60;1.30;;;;;;;27.96;23.41;99787.91;10422318;28;20115;-61
2023/07/16 15:28:22;;;;;;;4.03;1.73;;;;;;;27.80;23.66;99792.84;10421928;28;20459;-61
2023/07/16 15:33:29;;;;;;;4.18;1.58;;;;;;;27.47;23.60;99792.78;10422198;28;20053;-61
2023/07/16 15:38:31;;;;;;;2.95;1.60;;;;;;;27.25;23.39;99791.28;10422923;28;20048;-61
2023/07/16 15:43:33;;;;;;;2.60;1.23;;;;;;;27.21;23.97;99798.91;10423291;28;20198;-61
2023/07/16 15:48:36;;;;;;;2.95;1.48;;;;;;;26.90;24.09;99801.22;10422319;28;20414;-61
2023/07/16 15:53:39;;;;;;;2.60;1.20;;;;;;;26.38;24.47;99804.44;10409264;28;20068;-60
2023/07/16 15:58:41;;;;;;;3.28;1.30;;;;;;;26.30;24.93;99804.56;10421799;28;20055;-61
2023/07/16 16:03:43;;;;;;;4.65;1.40;;;;;;;26.28;24.93;99795.06;10436783;28;20517;-61
2023/07/16 16:08:47;;;;;;;4.35;1.50;;;;;;;26.33;24.67;99782.72;10418221;28;20044;-60
2023/07/16 16:13:49;;;;;;;2.33;1.30;;;;;;;26.55;24.50;99788.81;10420549;28;20080;-60
2023/07/16 16:18:52;;;;;;;5.25;1.58;;;;;;;26.59;24.23;99787.44;10415696;28;20107;-60
2023/07/16 16:23:55;;;;;;;2.22;1.13;;;;;;;26.80;24.38;99787.34;10423426;28;20412;-61
2023/07/16 16:28:57;;;;;;;2.22;1.13;;;;;;;26.46;24.62;99779.31;10418641;28;20036;-60
2023/07/16 16:33:59;;;;;;;8.23;2.72;;;;;;;26.51;24.56;99772.31;10406145;28;20092;-60
2023/07/16 16:39:00;;;;;;;3.65;1.30;;;;;;;26.83;24.19;99762.81;10418516;28;20490;-61
2023/07/16 16:44:03;;;;;;;2.25;1.30;;;;;;;27.04;24.21;99773.41;10419527;28;20148;-61
2023/07/16 16:49:05;;;;;;;4.05;1.40;;;;;;;26.59;24.20;99771.34;10420792;28;20390;-61
2023/07/16 16:54:08;;;;;;;1.67;1.05;;;;;;;26.75;23.91;99773.69;10420539;28;20053;-60
2023/07/16 16:59:10;;;;;;;4.05;1.50;;;;;;;26.80;24.26;99776.63;10421421;28;20127;-61
2023/07/16 17:04:12;;;;;;;3.08;1.42;;;;;;;26.62;24.41;99776.31;10411499;28;20103;-61
2023/07/16 17:09:14;;;;;;;2.60;1.38;;;;;;;26.36;24.76;99778.81;10419946;28;20072;-61
2023/07/16 17:14:16;;;;;;;4.13;1.30;;;;;;;26.10;25.04;99787.50;10413676;28;20047;-60
2023/07/16 17:19:18;;;;;;;2.97;1.40;;;;;;;26.29;25.09;99784.13;10413093;28;20080;-61
2023/07/16 17:24:22;;;;;;;1.95;1.20;;;;;;;26.34;24.75;99780.88;10416457;28;20057;-60
2023/07/16 17:29:24;;;;;;;5.10;1.98;;;;;;;26.39;24.98;99776.56;10417306;28;20041;-60
2023/07/16 17:34:29;;;;;;;6.80;1.58;;;;;;;26.31;24.77;99784.78;10415684;28;20041;-60
2023/07/16 17:39:31;;;;;;;4.78;1.40;;;;;;;26.08;24.77;99794.09;10416237;28;20057;-60
2023/07/16 17:44:33;;;;;;;5.65;1.58;;;;;;;25.80;24.60;99792.19;10415441;28;20074;-60
2023/07/16 17:49:35;;;;;;;5.07;1.52;;;;;;;25.64;24.84;99800.47;10411595;28;20041;-60
2023/07/16 17:54:38;;;;;;;2.97;1.40;;;;;;;25.51;25.05;99789.63;10416394;28;20247;-60
2023/07/16 17:59:40;;;;;;;3.20;1.30;;;;;;;25.46;25.19;99792.06;10413808;28;20068;-60
2023/07/16 18:04:42;;;;;;;2.67;1.30;;;;;;;25.27;25.39;99799.81;10404248;28;20094;-60
2023/07/16 18:09:44;;;;;;;2.45;1.40;;;;;;;25.31;25.55;99809.97;10411684;28;20139;-60
2023/07/16 18:14:47;;;;;;;4.95;1.88;;;;;;;25.17;25.66;99810.84;10418631;28;20048;-60
2023/07/16 18:19:49;;;;;;;2.85;1.50;;;;;;;24.92;25.95;99822.88;10423536;28;20053;-60
2023/07/16 18:24:52;;;;;;;2.70;1.55;;;;;;;24.72;26.18;99822.59;10426024;28;20053;-60
2023/07/16 18:29:54;;;;;;;3.10;1.85;;;;;;;24.66;26.36;99825.16;10425521;28;20420;-60
2023/07/16 18:34:56;;;;;;;3.03;1.50;;;;;;;24.46;26.71;99837.41;10423899;28;20047;-60
2023/07/16 18:39:59;;;;;;;2.75;1.50;;;;;;;24.21;27.20;99824.28;10426084;28;20095;-60
2023/07/16 18:45:05;;;;;;;2.25;1.30;;;;;;;24.10;27.45;99826.56;10426108;28;20045;-60
2023/07/16 18:50:10;;;;;;;3.47;1.63;;;;;;;23.92;27.86;99828.72;10429444;28;20040;-60
2023/07/16 18:55:12;;;;;;;2.55;1.33;;;;;;;23.75;28.09;99833.34;10432274;28;20135;-60
2023/07/16 19:00:16;;;;;;;2.25;1.27;;;;;;;23.57;28.18;99839.97;10426529;28;20533;-60
2023/07/16 19:05:18;;;;;;;6.13;1.65;;;;;;;23.45;28.44;99832.34;10413045;28;20068;-60
2023/07/16 19:10:20;;;;;;;2.95;1.45;;;;;;;23.40;28.75;99841.88;10415662;28;20467;-60
2023/07/16 19:15:22;;;;;;;2.58;1.42;;;;;;;23.30;28.90;99841.25;10425988;28;20906;-60
2023/07/16 19:20:24;;;;;;;2.42;1.30;;;;;;;23.16;29.73;99848.19;10441471;28;20061;-60
2023/07/16 19:25:26;;;;;;;5.47;1.77;;;;;;;22.96;30.06;99854.09;10428125;28;20130;-60
2023/07/16 19:30:28;;;;;;;3.35;1.58;;;;;;;22.63;30.52;99867.50;10426973;28;20048;-60
2023/07/16 19:35:30;;;;;;;3.15;1.60;;;;;;;22.43;30.84;99871.50;10414578;28;20133;-59
2023/07/16 19:40:34;;;;;;;4.95;1.42;;;;;;;22.23;31.08;99885.38;10425008;28;20736;-58
2023/07/16 19:45:36;;;;;;;2.97;1.30;;;;;;;21.99;31.87;99894.16;10425357;28;20041;-58
2023/07/16 19:50:46;;;;;;;3.28;1.58;;;;;;;21.80;32.57;99902.47;10405732;28;20041;-58
2023/07/16 19:55:50;;;;;;;3.35;1.50;;;;;;;21.63;33.22;99903.41;10423211;28;20124;-59
2023/07/16 20:00:53;;;;;;;5.53;1.58;;;;;;;21.54;33.31;99907.03;10424796;28;20413;-58
2023/07/16 20:05:55;;;;;;;4.32;1.52;;;;;;;21.41;33.65;99912.00;10426113;28;20041;-58
2023/07/16 20:10:58;;;;;;;3.53;1.65;;;;;;;21.24;33.92;99923.53;10425546;28;20148;-58
2023/07/16 20:16:00;;;;;;;3.92;1.50;;;;;;;21.05;34.45;99922.78;10427214;28;20168;-58
2023/07/16 20:21:04;;;;;;;2.28;1.17;;;;;;;20.84;34.74;99926.81;10427026;28;20333;-58
2023/07/16 20:26:06;;;;;;;3.60;1.20;;;;;;;20.66;34.98;99921.53;10425219;28;20052;-58
2023/07/16 20:31:08;;;;;;;2.00;1.35;;;;;;;20.49;35.02;99919.75;10424436;28;20151;-58
2023/07/16 20:36:10;;;;;;;3.70;1.50;;;;;;;20.35;35.41;99924.75;10416577;28;20673;-58
2023/07/16 20:41:12;;;;;;;2.85;1.58;;;;;;;20.12;36.17;99929.72;10414650;28;20416;-58
2023/07/16 20:46:15;;;;;;;2.03;1.30;;;;;;;19.99;36.00;99926.63;10412855;28;20116;-58
2023/07/16 20:51:17;;;;;;;4.38;1.65;;;;;;;19.91;36.47;99934.50;10415232;28;20051;-58
2023/07/16 20:56:19;;;;;;;4.80;2.22;;;;;;;19.76;36.73;99933.31;10414617;28;20041;-59
2023/07/16 21:01:21;;;;;;;2.03;1.33;;;;;;;19.61;37.29;99929.47;10417188;28;20059;-58
2023/07/16 21:06:23;;;;;;;2.97;1.70;;;;;;;19.51;37.64;99937.50;10425982;28;20041;-58
2023/07/16 21:11:25;;;;;;;2.83;1.67;;;;;;;19.41;37.60;99934.91;10426094;28;20100;-58
2023/07/16 21:16:27;;;;;;;2.85;1.48;;;;;;;19.22;37.93;99936.81;10424690;28;20053;-58
2023/07/16 21:21:29;;;;;;;4.75;1.42;;;;;;;19.13;38.34;99935.06;10426256;28;20135;-58
2023/07/16 21:26:32;;;;;;;2.65;1.30;;;;;;;18.87;38.63;99934.81;10422670;28;20215;-58
2023/07/16 21:31:34;;;;;;;4.80;1.58;;;;;;;18.71;39.10;99950.47;10416603;28;20111;-58
2023/07/16 21:36:36;;;;;;;2.78;1.40;;;;;;;18.58;39.48;99945.47;10421205;28;20053;-58
2023/07/16 21:41:38;;;;;;;3.45;1.55;;;;;;;18.47;39.88;99950.09;10423116;28;20049;-58
2023/07/16 21:46:40;;;;;;;4.18;1.98;;;;;;;18.29;40.22;99947.34;10422540;28;20221;-58
2023/07/16 21:51:42;;;;;;;4.53;2.10;;;;;;;18.20;40.38;99952.66;10421199;28;20072;-58
2023/07/16 21:56:44;;;;;;;4.07;1.50;;;;;;;18.04;40.99;99957.59;10423036;28;20196;-58
2023/07/16 22:01:46;;;;;;;4.40;1.50;;;;;;;17.90;41.07;99958.84;10419941;28;20045;-58
2023/07/16 22:06:49;;;;;;;3.40;1.70;;;;;;;17.90;41.49;99960.66;10421177;28;20410;-58
2023/07/16 22:11:51;;;;;;;3.63;1.70;;;;;;;17.88;41.60;99960.78;10421385;28;20056;-58
2023/07/16 22:16:53;;;;;;;3.20;1.60;;;;;;;17.85;41.95;99961.06;10406690;28;20106;-58
2023/07/16 22:21:55;;;;;;;3.55;1.65;;;;;;;17.80;42.15;99961.47;10422153;28;20044;-58
2023/07/16 22:26:57;;;;;;;4.40;1.45;;;;;;;17.70;42.24;99965.06;10421453;28;20849;-58
2023/07/16 22:31:59;;;;;;;3.45;1.70;;;;;;;17.51;42.49;99963.22;10421792;28;20077;-58
2023/07/16 22:37:01;;;;;;;3.58;1.50;;;;;;;17.29;43.14;99957.25;10422334;28;20041;-58
2023/07/16 22:42:04;;;;;;;4.13;1.70;;;;;;;17.30;43.12;99965.03;10420352;28;20434;-58
2023/07/16 22:47:06;;;;;;;4.63;2.25;;;;;;;17.30;43.08;99965.03;10421924;28;20041;-58
2023/07/16 22:52:08;;;;;;;2.83;1.50;;;;;;;17.32;43.17;99962.28;10419744;28;20915;-58
2023/07/16 22:57:11;;;;;;;3.03;1.58;;;;;;;17.28;43.59;99972.28;10419986;28;20069;-58
2023/07/16 23:02:13;;;;;;;4.97;1.60;;;;;;;17.40;43.40;99965.13;10427005;28;20045;-57
2023/07/16 23:07:15;;;;;;;3.33;1.48;;;;;;;17.48;43.28;99967.94;10417732;28;20132;-58
2023/07/16 23:12:17;;;;;;;4.57;1.73;;;;;;;17.56;43.00;99955.72;10425374;28;20048;-58
2023/07/16 23:17:20;;;;;;;7.57;2.80;;;;;;;17.62;43.01;99963.13;10409766;28;20231;-58
2023/07/16 23:22:22;;;;;;;2.85;1.50;;;;;;;17.66;43.16;99963.69;10426182;28;20103;-58
2023/07/16 23:27:25;;;;;;;4.35;1.90;;;;;;;17.69;43.04;99966.03;10442667;28;20080;-58